sensor_id;sensor_type;location;lat;lon;timestamp;P1;durP1;ratioP1;P2;durP2;ratioP2
76447;SDS011;65284;51.040;13.722;2023-10-13T00:01:47;9.57;;;4.97;;
76447;SDS011;65284;51.040;13.722;2023-10-13T00:04:14;9.95;;;5.07;;
76447;SDS011;65284;51.040;13.722;2023-10-13T00:06:41;9.65;;;4.60;;
76447;SDS011;65284;51.040;13.722;2023-10-13T00:09:08;11.10;;;5.10;;
76447;SDS011;65284;51.040;13.722;2023-10-13T00:11:41;10.60;;;4.57;;
76447;SDS011;65284;51.040;13.722;2023-10-13T00:14:11;9.32;;;4.90;;
76447;SDS011;65284;51.040;13.722;2023-10-13T00:16:42;9.27;;;4.65;;
76447;SDS011;65284;51.040;13.722;2023-10-13T00:19:28;9.70;;;4.72;;
76447;SDS011;65284;51.040;13.722;2023-10-13T00:21:55;10.57;;;4.80;;
76447;SDS011;65284;51.040;13.722;2023-10-13T00:24:22;9.15;;;4.53;;
76447;SDS011;65284;51.040;13.722;2023-10-13T00:26:55;10.63;;;5.18;;
76447;SDS011;65284;51.040;13.722;2023-10-13T00:29:23;9.60;;;5.32;;
76447;SDS011;65284;51.040;13.722;2023-10-13T00:31:56;11.05;;;4.90;;
76447;SDS011;65284;51.040;13.722;2023-10-13T00:34:23;8.82;;;5.07;;
76447;SDS011;65284;51.040;13.722;2023-10-13T00:36:54;12.65;;;5.53;;
76447;SDS011;65284;51.040;13.722;2023-10-13T00:39:39;10.30;;;5.13;;
76447;SDS011;65284;51.040;13.722;2023-10-13T00:42:14;10.65;;;5.25;;
76447;SDS011;65284;51.040;13.722;2023-10-13T00:44:47;10.20;;;5.20;;
76447;SDS011;65284;51.040;13.722;2023-10-13T00:47:16;11.63;;;5.45;;
76447;SDS011;65284;51.040;13.722;2023-10-13T00:50:03;9.48;;;5.05;;
76447;SDS011;65284;51.040;13.722;2023-10-13T00:52:31;12.10;;;5.50;;
76447;SDS011;65284;51.040;13.722;2023-10-13T00:55:02;11.18;;;5.45;;
76447;SDS011;65284;51.040;13.722;2023-10-13T00:57:30;9.55;;;5.43;;
76447;SDS011;65284;51.040;13.722;2023-10-13T00:59:57;13.40;;;5.60;;
76447;SDS011;65284;51.040;13.722;2023-10-13T01:02:24;11.02;;;5.22;;
76447;SDS011;65284;51.040;13.722;2023-10-13T01:05:06;11.65;;;5.78;;
76447;SDS011;65284;51.040;13.722;2023-10-13T01:07:38;13.05;;;5.30;;
76447;SDS011;65284;51.040;13.722;2023-10-13T01:10:04;11.93;;;5.15;;
76447;SDS011;65284;51.040;13.722;2023-10-13T01:12:35;12.75;;;4.97;;
76447;SDS011;65284;51.040;13.722;2023-10-13T01:15:01;9.40;;;4.75;;
76447;SDS011;65284;51.040;13.722;2023-10-13T01:17:35;10.15;;;4.90;;
76447;SDS011;65284;51.040;13.722;2023-10-13T01:20:03;11.02;;;5.35;;
76447;SDS011;65284;51.040;13.722;2023-10-13T01:22:31;10.68;;;5.32;;
76447;SDS011;65284;51.040;13.722;2023-10-13T01:24:58;10.48;;;4.70;;
76447;SDS011;65284;51.040;13.722;2023-10-13T01:27:45;9.25;;;4.82;;
76447;SDS011;65284;51.040;13.722;2023-10-13T01:30:15;8.70;;;4.50;;
76447;SDS011;65284;51.040;13.722;2023-10-13T01:32:42;9.48;;;4.20;;
76447;SDS011;65284;51.040;13.722;2023-10-13T01:35:11;7.45;;;4.28;;
76447;SDS011;65284;51.040;13.722;2023-10-13T01:37:38;8.35;;;4.30;;
76447;SDS011;65284;51.040;13.722;2023-10-13T01:40:05;9.27;;;4.30;;
76447;SDS011;65284;51.040;13.722;2023-10-13T01:42:31;9.65;;;4.38;;
76447;SDS011;65284;51.040;13.722;2023-10-13T01:44:58;9.65;;;4.13;;
76447;SDS011;65284;51.040;13.722;2023-10-13T01:47:32;10.48;;;4.25;;
76447;SDS011;65284;51.040;13.722;2023-10-13T01:50:02;10.38;;;4.43;;
76447;SDS011;65284;51.040;13.722;2023-10-13T01:52:47;8.98;;;4.07;;
76447;SDS011;65284;51.040;13.722;2023-10-13T01:55:13;8.77;;;4.20;;
76447;SDS011;65284;51.040;13.722;2023-10-13T01:57:41;8.93;;;4.00;;
76447;SDS011;65284;51.040;13.722;2023-10-13T02:00:13;7.68;;;3.90;;
76447;SDS011;65284;51.040;13.722;2023-10-13T02:02:46;8.20;;;3.75;;
76447;SDS011;65284;51.040;13.722;2023-10-13T02:05:16;7.53;;;4.22;;
76447;SDS011;65284;51.040;13.722;2023-10-13T02:07:43;8.90;;;4.30;;
76447;SDS011;65284;51.040;13.722;2023-10-13T02:10:11;8.70;;;4.20;;
76447;SDS011;65284;51.040;13.722;2023-10-13T02:12:39;8.02;;;3.95;;
76447;SDS011;65284;51.040;13.722;2023-10-13T02:15:10;10.15;;;4.20;;
76447;SDS011;65284;51.040;13.722;2023-10-13T02:17:47;9.07;;;3.97;;
76447;SDS011;65284;51.040;13.722;2023-10-13T02:20:18;8.10;;;4.13;;
76447;SDS011;65284;51.040;13.722;2023-10-13T02:22:44;8.40;;;3.95;;
76447;SDS011;65284;51.040;13.722;2023-10-13T02:25:18;8.05;;;4.10;;
76447;SDS011;65284;51.040;13.722;2023-10-13T02:28:02;7.85;;;4.10;;
76447;SDS011;65284;51.040;13.722;2023-10-13T02:30:29;6.20;;;3.60;;
76447;SDS011;65284;51.040;13.722;2023-10-13T02:32:55;7.95;;;3.75;;
76447;SDS011;65284;51.040;13.722;2023-10-13T02:35:23;7.10;;;3.50;;
76447;SDS011;65284;51.040;13.722;2023-10-13T02:37:57;6.72;;;3.53;;
76447;SDS011;65284;51.040;13.722;2023-10-13T02:40:24;7.82;;;3.58;;
76447;SDS011;65284;51.040;13.722;2023-10-13T02:42:51;6.47;;;3.50;;
76447;SDS011;65284;51.040;13.722;2023-10-13T02:45:18;7.25;;;3.40;;
76447;SDS011;65284;51.040;13.722;2023-10-13T02:47:49;6.45;;;3.22;;
76447;SDS011;65284;51.040;13.722;2023-10-13T02:50:37;7.18;;;3.60;;
76447;SDS011;65284;51.040;13.722;2023-10-13T02:53:09;6.35;;;3.20;;
76447;SDS011;65284;51.040;13.722;2023-10-13T02:55:48;6.70;;;3.50;;
76447;SDS011;65284;51.040;13.722;2023-10-13T02:58:19;7.43;;;3.40;;
76447;SDS011;65284;51.040;13.722;2023-10-13T03:00:47;7.25;;;3.38;;
76447;SDS011;65284;51.040;13.722;2023-10-13T03:03:13;8.10;;;3.20;;
76447;SDS011;65284;51.040;13.722;2023-10-13T03:05:45;4.85;;;3.00;;
76447;SDS011;65284;51.040;13.722;2023-10-13T03:08:12;7.53;;;3.28;;
76447;SDS011;65284;51.040;13.722;2023-10-13T03:10:44;7.72;;;3.30;;
76447;SDS011;65284;51.040;13.722;2023-10-13T03:13:15;6.15;;;3.30;;
76447;SDS011;65284;51.040;13.722;2023-10-13T03:15:41;6.93;;;3.22;;
76447;SDS011;65284;51.040;13.722;2023-10-13T03:18:13;9.02;;;3.60;;
76447;SDS011;65284;51.040;13.722;2023-10-13T03:20:44;7.60;;;3.28;;
76447;SDS011;65284;51.040;13.722;2023-10-13T03:23:16;6.85;;;3.33;;
76447;SDS011;65284;51.040;13.722;2023-10-13T03:25:43;5.80;;;3.08;;
76447;SDS011;65284;51.040;13.722;2023-10-13T03:28:09;8.52;;;3.67;;
76447;SDS011;65284;51.040;13.722;2023-10-13T03:30:40;5.88;;;3.30;;
76447;SDS011;65284;51.040;13.722;2023-10-13T03:33:10;6.30;;;3.38;;
76447;SDS011;65284;51.040;13.722;2023-10-13T03:35:38;6.13;;;3.22;;
76447;SDS011;65284;51.040;13.722;2023-10-13T03:38:11;6.32;;;3.40;;
76447;SDS011;65284;51.040;13.722;2023-10-13T03:40:44;5.55;;;3.33;;
76447;SDS011;65284;51.040;13.722;2023-10-13T03:43:15;6.47;;;3.13;;
76447;SDS011;65284;51.040;13.722;2023-10-13T03:45:49;6.45;;;3.50;;
76447;SDS011;65284;51.040;13.722;2023-10-13T03:48:27;8.13;;;3.28;;
76447;SDS011;65284;51.040;13.722;2023-10-13T03:53:30;25.30;;;15.48;;
76447;SDS011;65284;51.040;13.722;2023-10-13T03:56:06;12.43;;;7.82;;
76447;SDS011;65284;51.040;13.722;2023-10-13T03:58:40;7.82;;;4.30;;
76447;SDS011;65284;51.040;13.722;2023-10-13T04:01:14;6.68;;;3.70;;
76447;SDS011;65284;51.040;13.722;2023-10-13T04:03:43;6.65;;;3.47;;
76447;SDS011;65284;51.040;13.722;2023-10-13T04:06:31;6.30;;;3.55;;
76447;SDS011;65284;51.040;13.722;2023-10-13T04:09:16;8.02;;;4.00;;
76447;SDS011;65284;51.040;13.722;2023-10-13T04:12:03;7.38;;;3.88;;
76447;SDS011;65284;51.040;13.722;2023-10-13T04:14:32;8.68;;;3.75;;
76447;SDS011;65284;51.040;13.722;2023-10-13T04:17:18;7.32;;;3.70;;
76447;SDS011;65284;51.040;13.722;2023-10-13T04:19:55;6.28;;;3.67;;
76447;SDS011;65284;51.040;13.722;2023-10-13T04:22:33;10.57;;;4.10;;
76447;SDS011;65284;51.040;13.722;2023-10-13T04:28:02;6.88;;;3.50;;
76447;SDS011;65284;51.040;13.722;2023-10-13T04:30:39;7.85;;;3.50;;
76447;SDS011;65284;51.040;13.722;2023-10-13T04:33:19;8.80;;;3.47;;
76447;SDS011;65284;51.040;13.722;2023-10-13T04:38:43;7.75;;;3.53;;
76447;SDS011;65284;51.040;13.722;2023-10-13T04:41:19;6.88;;;3.70;;
76447;SDS011;65284;51.040;13.722;2023-10-13T04:43:49;7.60;;;3.50;;
76447;SDS011;65284;51.040;13.722;2023-10-13T04:46:23;8.23;;;3.60;;
76447;SDS011;65284;51.040;13.722;2023-10-13T04:49:05;8.18;;;3.60;;
76447;SDS011;65284;51.040;13.722;2023-10-13T04:51:54;6.32;;;3.33;;
76447;SDS011;65284;51.040;13.722;2023-10-13T04:54:45;12.45;;;5.57;;
76447;SDS011;65284;51.040;13.722;2023-10-13T04:57:21;8.70;;;4.32;;
76447;SDS011;65284;51.040;13.722;2023-10-13T04:59:50;9.20;;;4.50;;
76447;SDS011;65284;51.040;13.722;2023-10-13T05:02:40;9.10;;;4.95;;
76447;SDS011;65284;51.040;13.722;2023-10-13T05:05:21;8.50;;;4.30;;
76447;SDS011;65284;51.040;13.722;2023-10-13T05:07:48;7.93;;;4.07;;
76447;SDS011;65284;51.040;13.722;2023-10-13T05:10:34;7.65;;;4.00;;
76447;SDS011;65284;51.040;13.722;2023-10-13T05:13:19;9.57;;;4.30;;
76447;SDS011;65284;51.040;13.722;2023-10-13T05:16:05;8.88;;;4.00;;
76447;SDS011;65284;51.040;13.722;2023-10-13T05:18:50;7.55;;;4.22;;
76447;SDS011;65284;51.040;13.722;2023-10-13T05:21:35;8.68;;;4.32;;
76447;SDS011;65284;51.040;13.722;2023-10-13T05:24:22;7.88;;;4.10;;
76447;SDS011;65284;51.040;13.722;2023-10-13T05:27:08;8.95;;;4.20;;
76447;SDS011;65284;51.040;13.722;2023-10-13T05:29:52;8.32;;;4.43;;
76447;SDS011;65284;51.040;13.722;2023-10-13T05:32:37;8.38;;;4.03;;
76447;SDS011;65284;51.040;13.722;2023-10-13T05:35:23;9.25;;;4.60;;
76447;SDS011;65284;51.040;13.722;2023-10-13T05:38:09;10.63;;;5.88;;
76447;SDS011;65284;51.040;13.722;2023-10-13T05:40:58;11.88;;;6.22;;
76447;SDS011;65284;51.040;13.722;2023-10-13T05:43:49;18.13;;;6.25;;
76447;SDS011;65284;51.040;13.722;2023-10-13T05:46:35;12.63;;;5.50;;
76447;SDS011;65284;51.040;13.722;2023-10-13T05:49:15;14.40;;;6.40;;
76447;SDS011;65284;51.040;13.722;2023-10-13T05:51:42;9.35;;;5.30;;
76447;SDS011;65284;51.040;13.722;2023-10-13T05:54:13;10.23;;;4.85;;
76447;SDS011;65284;51.040;13.722;2023-10-13T05:56:49;12.23;;;5.20;;
76447;SDS011;65284;51.040;13.722;2023-10-13T05:59:37;9.13;;;4.63;;
76447;SDS011;65284;51.040;13.722;2023-10-13T06:02:23;10.40;;;4.95;;
76447;SDS011;65284;51.040;13.722;2023-10-13T06:05:10;7.53;;;4.80;;
76447;SDS011;65284;51.040;13.722;2023-10-13T06:07:57;18.52;;;8.50;;
76447;SDS011;65284;51.040;13.722;2023-10-13T06:10:43;21.83;;;10.65;;
76447;SDS011;65284;51.040;13.722;2023-10-13T06:13:29;13.30;;;7.20;;
76447;SDS011;65284;51.040;13.722;2023-10-13T06:16:14;12.93;;;6.60;;
76447;SDS011;65284;51.040;13.722;2023-10-13T06:19:01;15.27;;;6.00;;
76447;SDS011;65284;51.040;13.722;2023-10-13T06:21:46;12.18;;;4.95;;
76447;SDS011;65284;51.040;13.722;2023-10-13T06:24:32;12.43;;;5.90;;
76447;SDS011;65284;51.040;13.722;2023-10-13T06:27:17;9.90;;;4.78;;
76447;SDS011;65284;51.040;13.722;2023-10-13T06:30:02;11.35;;;4.50;;
76447;SDS011;65284;51.040;13.722;2023-10-13T06:32:30;9.70;;;4.25;;
76447;SDS011;65284;51.040;13.722;2023-10-13T06:34:58;12.00;;;4.60;;
76447;SDS011;65284;51.040;13.722;2023-10-13T06:37:31;9.73;;;4.70;;
76447;SDS011;65284;51.040;13.722;2023-10-13T06:40:03;17.25;;;4.63;;
76447;SDS011;65284;51.040;13.722;2023-10-13T06:42:48;13.35;;;5.70;;
76447;SDS011;65284;51.040;13.722;2023-10-13T06:45:15;12.30;;;4.45;;
76447;SDS011;65284;51.040;13.722;2023-10-13T06:47:43;12.73;;;6.57;;
76447;SDS011;65284;51.040;13.722;2023-10-13T06:50:10;12.90;;;7.38;;
76447;SDS011;65284;51.040;13.722;2023-10-13T06:52:42;11.50;;;6.32;;
76447;SDS011;65284;51.040;13.722;2023-10-13T06:55:09;7.75;;;3.70;;
76447;SDS011;65284;51.040;13.722;2023-10-13T06:57:41;9.23;;;4.15;;
76447;SDS011;65284;51.040;13.722;2023-10-13T07:00:10;8.90;;;4.45;;
76447;SDS011;65284;51.040;13.722;2023-10-13T07:02:55;7.05;;;3.97;;
76447;SDS011;65284;51.040;13.722;2023-10-13T07:05:36;7.28;;;3.58;;
76447;SDS011;65284;51.040;13.722;2023-10-13T07:08:10;7.30;;;3.60;;
76447;SDS011;65284;51.040;13.722;2023-10-13T07:10:51;7.20;;;3.38;;
76447;SDS011;65284;51.040;13.722;2023-10-13T07:13:24;8.23;;;3.67;;
76447;SDS011;65284;51.040;13.722;2023-10-13T07:15:54;8.90;;;4.00;;
76447;SDS011;65284;51.040;13.722;2023-10-13T07:18:40;8.25;;;3.95;;
76447;SDS011;65284;51.040;13.722;2023-10-13T07:21:29;11.70;;;3.60;;
76447;SDS011;65284;51.040;13.722;2023-10-13T07:23:58;7.72;;;4.25;;
76447;SDS011;65284;51.040;13.722;2023-10-13T07:26:34;9.60;;;4.28;;
76447;SDS011;65284;51.040;13.722;2023-10-13T07:29:09;14.82;;;6.50;;
76447;SDS011;65284;51.040;13.722;2023-10-13T07:31:36;12.95;;;7.30;;
76447;SDS011;65284;51.040;13.722;2023-10-13T07:34:04;9.77;;;5.70;;
76447;SDS011;65284;51.040;13.722;2023-10-13T07:36:39;11.07;;;5.63;;
76447;SDS011;65284;51.040;13.722;2023-10-13T07:39:06;12.50;;;5.90;;
76447;SDS011;65284;51.040;13.722;2023-10-13T07:41:50;14.10;;;5.28;;
76447;SDS011;65284;51.040;13.722;2023-10-13T07:44:21;10.50;;;5.45;;
76447;SDS011;65284;51.040;13.722;2023-10-13T07:46:53;11.07;;;5.40;;
76447;SDS011;65284;51.040;13.722;2023-10-13T07:51:58;8.90;;;5.20;;
76447;SDS011;65284;51.040;13.722;2023-10-13T07:54:27;13.30;;;6.20;;
76447;SDS011;65284;51.040;13.722;2023-10-13T07:56:53;20.13;;;10.27;;
76447;SDS011;65284;51.040;13.722;2023-10-13T07:59:23;16.08;;;8.70;;
76447;SDS011;65284;51.040;13.722;2023-10-13T08:01:50;14.88;;;6.57;;
76447;SDS011;65284;51.040;13.722;2023-10-13T08:04:38;10.45;;;5.70;;
76447;SDS011;65284;51.040;13.722;2023-10-13T08:07:05;11.25;;;5.43;;
76447;SDS011;65284;51.040;13.722;2023-10-13T08:09:41;9.80;;;5.80;;
76447;SDS011;65284;51.040;13.722;2023-10-13T08:12:09;11.77;;;5.47;;
76447;SDS011;65284;51.040;13.722;2023-10-13T08:14:39;10.10;;;5.32;;
76447;SDS011;65284;51.040;13.722;2023-10-13T08:17:10;8.68;;;5.05;;
76447;SDS011;65284;51.040;13.722;2023-10-13T08:19:37;9.68;;;4.53;;
76447;SDS011;65284;51.040;13.722;2023-10-13T08:22:14;7.65;;;3.72;;
76447;SDS011;65284;51.040;13.722;2023-10-13T08:24:44;7.38;;;3.30;;
76447;SDS011;65284;51.040;13.722;2023-10-13T08:27:12;5.07;;;2.80;;
76447;SDS011;65284;51.040;13.722;2023-10-13T08:29:58;4.88;;;2.38;;
76447;SDS011;65284;51.040;13.722;2023-10-13T08:32:25;4.90;;;2.00;;
76447;SDS011;65284;51.040;13.722;2023-10-13T08:34:56;5.10;;;1.80;;
76447;SDS011;65284;51.040;13.722;2023-10-13T08:37:23;4.72;;;2.25;;
76447;SDS011;65284;51.040;13.722;2023-10-13T08:39:56;3.83;;;1.98;;
76447;SDS011;65284;51.040;13.722;2023-10-13T08:42:53;4.80;;;2.00;;
76447;SDS011;65284;51.040;13.722;2023-10-13T08:45:31;3.05;;;1.75;;
76447;SDS011;65284;51.040;13.722;2023-10-13T08:48:02;3.88;;;1.98;;
76447;SDS011;65284;51.040;13.722;2023-10-13T08:50:35;6.90;;;2.00;;
76447;SDS011;65284;51.040;13.722;2023-10-13T08:56:01;5.47;;;2.00;;
76447;SDS011;65284;51.040;13.722;2023-10-13T08:58:43;3.58;;;1.80;;
76447;SDS011;65284;51.040;13.722;2023-10-13T09:04:08;4.20;;;1.90;;
76447;SDS011;65284;51.040;13.722;2023-10-13T09:06:45;5.15;;;2.00;;
76447;SDS011;65284;51.040;13.722;2023-10-13T09:09:15;4.38;;;1.90;;
76447;SDS011;65284;51.040;13.722;2023-10-13T09:12:22;4.70;;;2.00;;
76447;SDS011;65284;51.040;13.722;2023-10-13T09:15:02;4.65;;;2.00;;
76447;SDS011;65284;51.040;13.722;2023-10-13T09:17:40;5.90;;;2.03;;
76447;SDS011;65284;51.040;13.722;2023-10-13T09:20:10;3.45;;;2.00;;
76447;SDS011;65284;51.040;13.722;2023-10-13T09:25:29;4.90;;;2.03;;
76447;SDS011;65284;51.040;13.722;2023-10-13T09:28:10;5.82;;;2.28;;
76447;SDS011;65284;51.040;13.722;2023-10-13T09:30:53;5.28;;;2.15;;
76447;SDS011;65284;51.040;13.722;2023-10-13T09:33:28;3.42;;;2.00;;
76447;SDS011;65284;51.040;13.722;2023-10-13T09:35:59;6.05;;;2.00;;
76447;SDS011;65284;51.040;13.722;2023-10-13T09:38:29;6.13;;;2.30;;
76447;SDS011;65284;51.040;13.722;2023-10-13T09:40:58;4.10;;;2.00;;
76447;SDS011;65284;51.040;13.722;2023-10-13T09:43:36;4.70;;;2.40;;
76447;SDS011;65284;51.040;13.722;2023-10-13T09:46:04;7.80;;;2.28;;
76447;SDS011;65284;51.040;13.722;2023-10-13T09:48:34;7.38;;;2.10;;
76447;SDS011;65284;51.040;13.722;2023-10-13T09:51:03;5.75;;;2.35;;
76447;SDS011;65284;51.040;13.722;2023-10-13T09:53:35;5.90;;;2.45;;
76447;SDS011;65284;51.040;13.722;2023-10-13T09:56:25;9.02;;;2.38;;
76447;SDS011;65284;51.040;13.722;2023-10-13T09:58:57;7.22;;;2.55;;
76447;SDS011;65284;51.040;13.722;2023-10-13T10:01:36;7.20;;;2.35;;
76447;SDS011;65284;51.040;13.722;2023-10-13T10:04:10;8.18;;;2.60;;
76447;SDS011;65284;51.040;13.722;2023-10-13T10:06:56;6.50;;;2.60;;
76447;SDS011;65284;51.040;13.722;2023-10-13T10:09:30;6.18;;;2.60;;
76447;SDS011;65284;51.040;13.722;2023-10-13T10:14:56;7.82;;;2.55;;
76447;SDS011;65284;51.040;13.722;2023-10-13T10:17:54;7.10;;;2.60;;
76447;SDS011;65284;51.040;13.722;2023-10-13T10:20:30;8.02;;;2.33;;
76447;SDS011;65284;51.040;13.722;2023-10-13T10:23:29;6.70;;;2.35;;
76447;SDS011;65284;51.040;13.722;2023-10-13T10:26:12;7.28;;;2.55;;
76447;SDS011;65284;51.040;13.722;2023-10-13T10:28:46;6.03;;;2.42;;
76447;SDS011;65284;51.040;13.722;2023-10-13T10:31:13;7.03;;;2.60;;
76447;SDS011;65284;51.040;13.722;2023-10-13T10:33:46;8.52;;;2.80;;
76447;SDS011;65284;51.040;13.722;2023-10-13T10:36:16;7.75;;;2.50;;
76447;SDS011;65284;51.040;13.722;2023-10-13T10:38:54;8.10;;;2.47;;
76447;SDS011;65284;51.040;13.722;2023-10-13T10:41:26;7.60;;;2.40;;
76447;SDS011;65284;51.040;13.722;2023-10-13T10:44:16;7.22;;;2.60;;
76447;SDS011;65284;51.040;13.722;2023-10-13T10:46:49;7.45;;;2.55;;
76447;SDS011;65284;51.040;13.722;2023-10-13T10:49:25;7.88;;;2.83;;
76447;SDS011;65284;51.040;13.722;2023-10-13T10:51:59;7.80;;;2.83;;
76447;SDS011;65284;51.040;13.722;2023-10-13T10:54:30;9.48;;;2.47;;
76447;SDS011;65284;51.040;13.722;2023-10-13T10:56:58;7.45;;;2.60;;
76447;SDS011;65284;51.040;13.722;2023-10-13T10:59:37;8.27;;;2.47;;
76447;SDS011;65284;51.040;13.722;2023-10-13T11:02:05;6.93;;;2.67;;
76447;SDS011;65284;51.040;13.722;2023-10-13T11:04:33;7.90;;;2.70;;
76447;SDS011;65284;51.040;13.722;2023-10-13T11:07:00;8.23;;;2.88;;
76447;SDS011;65284;51.040;13.722;2023-10-13T11:09:28;8.38;;;2.65;;
76447;SDS011;65284;51.040;13.722;2023-10-13T11:12:13;9.63;;;2.70;;
76447;SDS011;65284;51.040;13.722;2023-10-13T11:15:03;10.07;;;2.88;;
76447;SDS011;65284;51.040;13.722;2023-10-13T11:17:49;10.60;;;2.83;;
76447;SDS011;65284;51.040;13.722;2023-10-13T11:20:23;11.27;;;3.10;;
76447;SDS011;65284;51.040;13.722;2023-10-13T11:22:52;11.65;;;3.25;;
76447;SDS011;65284;51.040;13.722;2023-10-13T11:25:41;9.57;;;2.88;;
76447;SDS011;65284;51.040;13.722;2023-10-13T11:28:39;10.40;;;2.70;;
76447;SDS011;65284;51.040;13.722;2023-10-13T11:31:00;10.90;;;2.95;;
76447;SDS011;65284;51.040;13.722;2023-10-13T11:33:43;9.93;;;3.08;;
76447;SDS011;65284;51.040;13.722;2023-10-13T11:36:13;13.43;;;3.10;;
76447;SDS011;65284;51.040;13.722;2023-10-13T11:38:58;9.07;;;2.90;;
76447;SDS011;65284;51.040;13.722;2023-10-13T11:41:24;11.35;;;2.97;;
76447;SDS011;65284;51.040;13.722;2023-10-13T11:43:59;11.35;;;2.75;;
76447;SDS011;65284;51.040;13.722;2023-10-13T11:46:44;9.32;;;3.13;;
76447;SDS011;65284;51.040;13.722;2023-10-13T11:49:11;9.77;;;2.90;;
76447;SDS011;65284;51.040;13.722;2023-10-13T11:51:58;10.65;;;3.10;;
76447;SDS011;65284;51.040;13.722;2023-10-13T11:54:43;12.88;;;3.25;;
76447;SDS011;65284;51.040;13.722;2023-10-13T11:57:10;10.45;;;3.20;;
76447;SDS011;65284;51.040;13.722;2023-10-13T11:59:36;13.30;;;3.20;;
76447;SDS011;65284;51.040;13.722;2023-10-13T12:02:10;12.00;;;3.17;;
76447;SDS011;65284;51.040;13.722;2023-10-13T12:04:38;10.25;;;3.15;;
76447;SDS011;65284;51.040;13.722;2023-10-13T12:07:15;12.60;;;3.35;;
76447;SDS011;65284;51.040;13.722;2023-10-13T12:09:53;10.32;;;3.13;;
76447;SDS011;65284;51.040;13.722;2023-10-13T12:12:23;12.77;;;3.03;;
76447;SDS011;65284;51.040;13.722;2023-10-13T12:14:50;11.18;;;3.20;;
76447;SDS011;65284;51.040;13.722;2023-10-13T12:17:27;14.40;;;3.17;;
76447;SDS011;65284;51.040;13.722;2023-10-13T12:19:58;10.27;;;3.00;;
76447;SDS011;65284;51.040;13.722;2023-10-13T12:22:25;9.45;;;3.25;;
76447;SDS011;65284;51.040;13.722;2023-10-13T12:24:55;13.15;;;3.05;;
76447;SDS011;65284;51.040;13.722;2023-10-13T12:27:22;10.57;;;3.65;;
76447;SDS011;65284;51.040;13.722;2023-10-13T12:30:01;7.35;;;3.17;;
76447;SDS011;65284;51.040;13.722;2023-10-13T12:32:34;11.88;;;3.50;;
76447;SDS011;65284;51.040;13.722;2023-10-13T12:35:00;11.02;;;3.30;;
76447;SDS011;65284;51.040;13.722;2023-10-13T12:37:30;11.65;;;3.05;;
76447;SDS011;65284;51.040;13.722;2023-10-13T12:40:13;12.40;;;3.10;;
76447;SDS011;65284;51.040;13.722;2023-10-13T12:43:00;10.25;;;3.55;;
76447;SDS011;65284;51.040;13.722;2023-10-13T12:45:46;10.80;;;3.03;;
76447;SDS011;65284;51.040;13.722;2023-10-13T12:48:32;11.27;;;3.10;;
76447;SDS011;65284;51.040;13.722;2023-10-13T12:51:18;13.80;;;3.30;;
76447;SDS011;65284;51.040;13.722;2023-10-13T12:54:06;8.57;;;2.80;;
76447;SDS011;65284;51.040;13.722;2023-10-13T12:56:49;11.73;;;3.03;;
76447;SDS011;65284;51.040;13.722;2023-10-13T12:59:23;9.70;;;3.50;;
76447;SDS011;65284;51.040;13.722;2023-10-13T13:01:53;9.57;;;3.17;;
76447;SDS011;65284;51.040;13.722;2023-10-13T13:04:20;11.70;;;3.40;;
76447;SDS011;65284;51.040;13.722;2023-10-13T13:06:47;9.52;;;4.18;;
76447;SDS011;65284;51.040;13.722;2023-10-13T13:09:15;12.93;;;3.97;;
76447;SDS011;65284;51.040;13.722;2023-10-13T13:11:50;10.13;;;4.05;;
76447;SDS011;65284;51.040;13.722;2023-10-13T13:14:16;11.40;;;4.32;;
76447;SDS011;65284;51.040;13.722;2023-10-13T13:16:43;20.65;;;7.03;;
76447;SDS011;65284;51.040;13.722;2023-10-13T13:19:14;12.98;;;6.13;;
76447;SDS011;65284;51.040;13.722;2023-10-13T13:21:50;15.73;;;5.35;;
76447;SDS011;65284;51.040;13.722;2023-10-13T13:24:16;12.18;;;5.38;;
76447;SDS011;65284;51.040;13.722;2023-10-13T13:26:43;13.52;;;5.40;;
76447;SDS011;65284;51.040;13.722;2023-10-13T13:29:09;12.68;;;5.30;;
76447;SDS011;65284;51.040;13.722;2023-10-13T13:31:36;15.82;;;5.15;;
76447;SDS011;65284;51.040;13.722;2023-10-13T13:34:07;13.85;;;5.32;;
76447;SDS011;65284;51.040;13.722;2023-10-13T13:36:39;12.88;;;5.35;;
76447;SDS011;65284;51.040;13.722;2023-10-13T13:39:10;14.73;;;5.28;;
76447;SDS011;65284;51.040;13.722;2023-10-13T13:41:37;13.57;;;4.93;;
76447;SDS011;65284;51.040;13.722;2023-10-13T13:44:04;11.43;;;4.10;;
76447;SDS011;65284;51.040;13.722;2023-10-13T13:46:40;8.20;;;3.65;;
76447;SDS011;65284;51.040;13.722;2023-10-13T13:49:09;10.95;;;3.80;;
76447;SDS011;65284;51.040;13.722;2023-10-13T13:51:46;12.45;;;3.30;;
76447;SDS011;65284;51.040;13.722;2023-10-13T13:54:19;10.50;;;3.40;;
76447;SDS011;65284;51.040;13.722;2023-10-13T13:56:47;14.07;;;3.45;;
76447;SDS011;65284;51.040;13.722;2023-10-13T13:59:14;8.63;;;3.13;;
76447;SDS011;65284;51.040;13.722;2023-10-13T14:01:46;10.13;;;3.47;;
76447;SDS011;65284;51.040;13.722;2023-10-13T14:04:12;12.55;;;3.20;;
76447;SDS011;65284;51.040;13.722;2023-10-13T14:06:43;10.80;;;3.25;;
76447;SDS011;65284;51.040;13.722;2023-10-13T14:09:11;7.55;;;3.10;;
76447;SDS011;65284;51.040;13.722;2023-10-13T14:11:40;10.27;;;3.60;;
76447;SDS011;65284;51.040;13.722;2023-10-13T14:14:26;9.50;;;3.33;;
76447;SDS011;65284;51.040;13.722;2023-10-13T14:16:52;12.05;;;3.28;;
76447;SDS011;65284;51.040;13.722;2023-10-13T14:19:20;7.70;;;3.30;;
76447;SDS011;65284;51.040;13.722;2023-10-13T14:21:56;10.43;;;3.40;;
76447;SDS011;65284;51.040;13.722;2023-10-13T14:24:24;12.93;;;4.00;;
76447;SDS011;65284;51.040;13.722;2023-10-13T14:26:55;8.30;;;3.90;;
76447;SDS011;65284;51.040;13.722;2023-10-13T14:29:23;11.10;;;4.38;;
76447;SDS011;65284;51.040;13.722;2023-10-13T14:31:53;9.82;;;3.78;;
76447;SDS011;65284;51.040;13.722;2023-10-13T14:34:19;12.70;;;4.25;;
76447;SDS011;65284;51.040;13.722;2023-10-13T14:39:14;11.13;;;3.80;;
76447;SDS011;65284;51.040;13.722;2023-10-13T14:41:41;12.57;;;4.13;;
76447;SDS011;65284;51.040;13.722;2023-10-13T14:44:07;12.80;;;3.95;;
76447;SDS011;65284;51.040;13.722;2023-10-13T14:46:35;10.32;;;4.30;;
76447;SDS011;65284;51.040;13.722;2023-10-13T14:49:06;11.85;;;4.72;;
76447;SDS011;65284;51.040;13.722;2023-10-13T14:51:32;10.52;;;4.50;;
76447;SDS011;65284;51.040;13.722;2023-10-13T14:53:59;12.13;;;4.32;;
76447;SDS011;65284;51.040;13.722;2023-10-13T14:56:26;12.90;;;4.10;;
76447;SDS011;65284;51.040;13.722;2023-10-13T14:58:54;9.27;;;4.07;;
76447;SDS011;65284;51.040;13.722;2023-10-13T15:01:21;12.35;;;5.78;;
76447;SDS011;65284;51.040;13.722;2023-10-13T15:03:49;11.45;;;4.72;;
76447;SDS011;65284;51.040;13.722;2023-10-13T15:06:17;12.65;;;4.75;;
76447;SDS011;65284;51.040;13.722;2023-10-13T15:08:44;10.00;;;4.20;;
76447;SDS011;65284;51.040;13.722;2023-10-13T15:11:12;11.32;;;3.70;;
76447;SDS011;65284;51.040;13.722;2023-10-13T15:13:40;13.40;;;4.32;;
76447;SDS011;65284;51.040;13.722;2023-10-13T15:16:18;8.25;;;3.78;;
76447;SDS011;65284;51.040;13.722;2023-10-13T15:18:45;11.88;;;4.15;;
76447;SDS011;65284;51.040;13.722;2023-10-13T15:21:22;13.52;;;5.32;;
76447;SDS011;65284;51.040;13.722;2023-10-13T15:26:30;11.65;;;5.43;;
76447;SDS011;65284;51.040;13.722;2023-10-13T15:28:57;10.10;;;4.90;;
76447;SDS011;65284;51.040;13.722;2023-10-13T15:31:24;9.65;;;4.03;;
76447;SDS011;65284;51.040;13.722;2023-10-13T15:34:02;12.02;;;4.25;;
76447;SDS011;65284;51.040;13.722;2023-10-13T15:36:33;10.57;;;4.75;;